メインページ
METAR-TAF:

METAR-TAF

空港 :

Blanc-Sablon, ケベック州, カナダ

緯度: 51-27N, 経度: 057-11W, 海抜: 30m

現時点の気象観測

当レポートは46分前の02:00(UTC)に作成
東/南東の風 5kt、から東/南東の間で変化する
気温 -13°C
湿度 66%
気圧 1019 hPa
視程: 24.1km
晴天

METAR: CYBX 240200Z 11005KT 360V120 15SM SKC M13/M18 A3008 RMK SLP191

時間: 21:46 (02:46 UTC)

予報

当レポートは1時間8分前の01:38(UTC)に作成
予報は24日の 02時(UTC)から 24日の 14時(UTC)まで有効
の風 6kt
視程: 10km
高度4000ftの雲はほとんどない
24日の 0800時(UTC)から
東/北東の風 10kt
視程: 10km
高度5000ftの雲は散在している

TAF: CYBX 240138Z 2402/2414 01006KT P6SM FEW040 FM240800 06010KT P6SM SCT050 RMK NXT FCST BY 240800Z

4,000以上の空港の気象観測と天気予報(METAR報とTAF報)

利用可能な観測所は地図上に黄色い丸と赤い丸で示す。

丸の上にカーソルを重ねると観測所名を参照できる。

次にクリックすると気象観測と天気予報を参照できる。

マップの切り替え:黒色「×」印の緑ボタンをクリックして拡大、「-」印の緑ボタンをクリックして縮小、緑色の三角印をクリックして隣りの地図に切り替え


METAR-TAF: